Nave Celeste — VRZH4 — position and weather

sailwx.info

Track history (hours):
 
Tides and Currents Weather Stations Pressure Air Temp Water Temp Dewpoint Dewpoint Depression Visibility Wind Speed Wind Dir Waves Ship Positions

Nave Celeste

Last reported at 2017-Sep-24 23:00 UTC. Time now 2017-Sep-24 23:17 UTC.
Position N 33°24' W 013°32'.

Length 332 m; draft 22 m.

Type: Tanker. MMSI: 477974000.

Date/timePositionNaut miles runAvg speedWind from/ knotsBaromVisibWave heightAir tempDewpointWater temp
2017-Sep-24 23:00N 33°24' W 013°32'5 9.7
2017-Sep-24 22:30N 33°19' W 013°34'5 9.7
2017-Sep-24 22:00N 33°14' W 013°34'5 9.7
2017-Sep-24 21:26N 33°09' W 013°35'410.2
2017-Sep-24 21:00N 33°05' W 013°37'510.3
2017-Sep-24 20:30N 32°60' W 013°40'510.2
2017-Sep-24 19:59N 32°55' W 013°42'510.4
2017-Sep-24 19:29N 32°50' W 013°44'510.5
2017-Sep-24 18:59N 32°45' W 013°46'710.4
2017-Sep-24 18:17N 32°38' W 013°48'310.3
2017-Sep-24 18:00N 32°35' W 013°50'510.5
2017-Sep-24 17:30N 32°30' W 013°51'510.4
2017-Sep-24 17:00N 32°25' W 013°53'510.3
2017-Sep-24 16:30N 32°20' W 013°55'610.3
2017-Sep-24 15:55N 32°15' W 013°57'410.5
2017-Sep-24 15:30N 32°10' W 013°58'510.5
2017-Sep-24 15:00N 32°06' W 014°00'510.4
2017-Sep-24 14:30N 32°01' W 014°02'510.1
2017-Sep-24 13:59N 31°55' W 014°03'510.0
2017-Sep-24 13:30N 31°51' W 014°05'2010.4
2017-Sep-24 11:32N 31°31' W 014°12'010.5
2017-Sep-24 11:30N 31°31' W 014°12'810.4
2017-Sep-24 10:46N 31°24' W 014°14'310.4
2017-Sep-24 10:30N 31°21' W 014°15'510.4
2017-Sep-24 10:00N 31°16' W 014°17'510.6
2017-Sep-24 09:30N 31°11' W 014°19'510.8
2017-Sep-24 09:00N 31°06' W 014°21'610.8
2017-Sep-24 08:28N 31°00' W 014°22'510.6
2017-Sep-24 08:00N 30°55' W 014°24'1510.7
2017-Sep-24 06:34N 30°41' W 014°29'110.9
2017-Sep-24 06:30N 30°40' W 014°30'1211.0
2017-Sep-24 05:23N 30°28' W 014°34'510.8
2017-Sep-24 04:58N 30°24' W 014°35'510.8
2017-Sep-24 04:30N 30°19' W 014°37'611.0
2017-Sep-24 04:00N 30°14' W 014°39'510.9
2017-Sep-24 03:30N 30°09' W 014°41'510.7
2017-Sep-24 03:00N 30°04' W 014°43'1110.6
2017-Sep-24 01:56N 29°53' W 014°46'610.6
2017-Sep-24 01:23N 29°47' W 014°48'410.5
2017-Sep-24 00:58N 29°43' W 014°49'510.4
2017-Sep-24 00:30N 29°38' W 014°51'610.3
2017-Sep-23 23:57N 29°33' W 014°53'510.6
2017-Sep-23 23:30N 29°28' W 014°54'510.7
2017-Sep-23 23:00N 29°23' W 014°56'2310.6
2017-Sep-23 20:48N 29°01' W 015°04'310.6
2017-Sep-23 20:29N 28°58' W 015°05'510.8
2017-Sep-23 19:59N 28°53' W 015°07'  
Track history (hours):
 
Tides and Currents Weather Stations Pressure Air Temp Water Temp Dewpoint Dewpoint Depression Visibility Wind Speed Wind Dir Waves Ship Positions

Nave Celeste

Last reported at 2017-Sep-24 23:00 UTC. Time now 2017-Sep-24 23:17 UTC.
Position N 33°24' W 013°32'.

Length 332 m; draft 22 m.

Type: Tanker. MMSI: 477974000.

Date/timePositionNaut miles runAvg speedWind from/ knotsBaromVisibWave heightAir tempDewpointWater temp
2017-Sep-24 23:00N 33°24' W 013°32'5 9.7
2017-Sep-24 22:30N 33°19' W 013°34'5 9.7
2017-Sep-24 22:00N 33°14' W 013°34'5 9.7
2017-Sep-24 21:26N 33°09' W 013°35'410.2
2017-Sep-24 21:00N 33°05' W 013°37'510.3
2017-Sep-24 20:30N 32°60' W 013°40'510.2
2017-Sep-24 19:59N 32°55' W 013°42'510.4
2017-Sep-24 19:29N 32°50' W 013°44'510.5
2017-Sep-24 18:59N 32°45' W 013°46'710.4
2017-Sep-24 18:17N 32°38' W 013°48'310.3
2017-Sep-24 18:00N 32°35' W 013°50'510.5
2017-Sep-24 17:30N 32°30' W 013°51'510.4
2017-Sep-24 17:00N 32°25' W 013°53'510.3
2017-Sep-24 16:30N 32°20' W 013°55'610.3
2017-Sep-24 15:55N 32°15' W 013°57'410.5
2017-Sep-24 15:30N 32°10' W 013°58'510.5
2017-Sep-24 15:00N 32°06' W 014°00'510.4
2017-Sep-24 14:30N 32°01' W 014°02'510.1
2017-Sep-24 13:59N 31°55' W 014°03'510.0
2017-Sep-24 13:30N 31°51' W 014°05'2010.4
2017-Sep-24 11:32N 31°31' W 014°12'010.5
2017-Sep-24 11:30N 31°31' W 014°12'810.4
2017-Sep-24 10:46N 31°24' W 014°14'310.4
2017-Sep-24 10:30N 31°21' W 014°15'510.4
2017-Sep-24 10:00N 31°16' W 014°17'510.6
2017-Sep-24 09:30N 31°11' W 014°19'510.8
2017-Sep-24 09:00N 31°06' W 014°21'610.8
2017-Sep-24 08:28N 31°00' W 014°22'510.6
2017-Sep-24 08:00N 30°55' W 014°24'1510.7
2017-Sep-24 06:34N 30°41' W 014°29'110.9
2017-Sep-24 06:30N 30°40' W 014°30'1211.0
2017-Sep-24 05:23N 30°28' W 014°34'510.8
2017-Sep-24 04:58N 30°24' W 014°35'510.8
2017-Sep-24 04:30N 30°19' W 014°37'611.0
2017-Sep-24 04:00N 30°14' W 014°39'510.9
2017-Sep-24 03:30N 30°09' W 014°41'510.7
2017-Sep-24 03:00N 30°04' W 014°43'1110.6
2017-Sep-24 01:56N 29°53' W 014°46'610.6
2017-Sep-24 01:23N 29°47' W 014°48'410.5
2017-Sep-24 00:58N 29°43' W 014°49'510.4
2017-Sep-24 00:30N 29°38' W 014°51'610.3
2017-Sep-23 23:57N 29°33' W 014°53'510.6
2017-Sep-23 23:30N 29°28' W 014°54'510.7
2017-Sep-23 23:00N 29°23' W 014°56'2310.6
2017-Sep-23 20:48N 29°01' W 015°04'310.6
2017-Sep-23 20:29N 28°58' W 015°05'510.8
2017-Sep-23 19:59N 28°53' W 015°07'  

Dump ship's entire track history